Time;durP1;ratioP1;P1;durP2;ratioP2;P2;SDS_P1;SDS_P2;PMS_P1;PMS_P2;Temp;Humidity;BMP_temperature;BMP_pressure;BME280_temperature;BME280_humidity;BME280_pressure;Samples;Min_cycle;Max_cycle;Signal;HPM_P1;HPM_P2
2023/02/10 00:02:29;;;;;;;36.28;25.55;;;;;;;3.32;100.00;103470.47;5282700;28;20036;-68
2023/02/10 00:05:00;;;;;;;37.50;26.20;;;;;;;3.31;100.00;103470.50;5281761;28;20099;-69
2023/02/10 00:07:32;;;;;;;39.30;25.95;;;;;;;3.27;100.00;103468.81;5266042;28;20594;-69
2023/02/10 00:10:03;;;;;;;33.50;25.08;;;;;;;3.22;100.00;103470.59;5286315;28;20078;-68
2023/02/10 00:12:38;;;;;;;37.17;26.40;;;;;;;3.30;100.00;103481.75;5281722;28;20063;-69
2023/02/10 00:15:09;;;;;;;34.47;25.60;;;;;;;3.23;100.00;103482.69;5285540;28;20020;-69
2023/02/10 00:17:40;;;;;;;35.90;25.48;;;;;;;3.19;100.00;103489.63;5285895;28;20627;-70
2023/02/10 00:20:11;;;;;;;33.92;25.17;;;;;;;3.20;100.00;103491.34;5282307;28;20419;-69
2023/02/10 00:22:43;;;;;;;35.72;27.02;;;;;;;3.03;100.00;103488.06;5284835;28;20929;-69
2023/02/10 00:25:14;;;;;;;36.10;26.02;;;;;;;3.03;100.00;103491.53;5276721;28;20473;-69
2023/02/10 00:27:45;;;;;;;34.50;25.98;;;;;;;2.99;100.00;103491.56;5281444;28;20432;-69
2023/02/10 00:30:16;;;;;;;36.90;26.40;;;;;;;2.93;100.00;103495.94;5283615;28;20032;-69
2023/02/10 00:32:48;;;;;;;38.10;27.08;;;;;;;2.93;100.00;103488.19;5282932;28;20020;-69
2023/02/10 00:35:19;;;;;;;33.72;25.77;;;;;;;2.90;100.00;103493.38;5284788;28;20035;-69
2023/02/10 00:37:50;;;;;;;34.75;26.02;;;;;;;2.83;100.00;103490.88;5286111;28;20233;-69
2023/02/10 00:40:22;;;;;;;34.92;25.95;;;;;;;2.79;100.00;103486.59;5285217;28;20036;-69
2023/02/10 00:42:53;;;;;;;34.75;25.70;;;;;;;2.76;100.00;103490.06;5283453;28;20103;-69
2023/02/10 00:45:24;;;;;;;34.08;25.33;;;;;;;2.72;100.00;103490.13;5280053;28;20036;-69
2023/02/10 00:47:56;;;;;;;37.20;25.58;;;;;;;2.72;100.00;103485.78;5285077;28;20380;-69
2023/02/10 00:50:27;;;;;;;39.38;27.35;;;;;;;2.70;100.00;103491.88;5279162;28;20039;-69
2023/02/10 00:52:58;;;;;;;32.55;23.70;;;;;;;2.61;100.00;103467.81;5283859;28;20050;-70
2023/02/10 00:55:29;;;;;;;35.90;25.33;;;;;;;2.68;100.00;103499.63;5282598;28;20024;-69
2023/02/10 00:58:01;;;;;;;36.47;25.25;;;;;;;2.68;100.00;103494.47;5285114;28;20123;-69
2023/02/10 01:00:32;;;;;;;36.30;26.90;;;;;;;2.65;100.00;103499.66;5277748;28;20060;-69
2023/02/10 01:03:03;;;;;;;40.75;26.65;;;;;;;2.63;100.00;103499.69;5271479;28;20089;-69
2023/02/10 01:05:35;;;;;;;35.40;26.05;;;;;;;2.60;100.00;103497.13;5283813;28;20020;-69
2023/02/10 01:08:06;;;;;;;37.78;26.65;;;;;;;2.56;100.00;103490.25;5278581;28;20028;-69
2023/02/10 01:10:37;;;;;;;38.10;27.08;;;;;;;2.57;100.00;103497.13;5279222;28;20115;-68
2023/02/10 01:13:10;;;;;;;41.53;28.25;;;;;;;2.60;100.00;103501.44;5285441;28;20032;-69
2023/02/10 01:15:46;;;;;;;40.70;28.73;;;;;;;2.70;100.00;103503.09;5284847;28;20032;-69
2023/02/10 01:18:17;;;;;;;36.97;27.55;;;;;;;2.53;100.00;103512.72;5288901;28;20051;-68
2023/02/10 01:20:49;;;;;;;36.90;27.63;;;;;;;2.54;100.00;103514.41;5283749;28;20028;-69
2023/02/10 01:23:20;;;;;;;37.63;28.40;;;;;;;2.51;100.00;103510.16;5287977;28;20059;-69
2023/02/10 01:25:51;;;;;;;35.67;26.58;;;;;;;2.47;100.00;103511.06;5282178;28;20851;-69
2023/02/10 01:28:22;;;;;;;38.75;27.80;;;;;;;2.48;100.00;103512.75;5281799;28;20118;-68
2023/02/10 01:30:54;;;;;;;35.47;26.75;;;;;;;2.47;100.00;103521.41;5285877;28;20033;-69
2023/02/10 01:33:25;;;;;;;36.13;27.80;;;;;;;2.41;100.00;103531.78;5287653;28;20034;-69
2023/02/10 01:35:56;;;;;;;39.55;28.55;;;;;;;2.37;100.00;103528.34;5292353;28;20028;-69
2023/02/10 01:38:27;;;;;;;40.70;28.67;;;;;;;2.39;100.00;103529.22;5287111;28;20039;-69
2023/02/10 01:40:59;;;;;;;42.22;29.77;;;;;;;2.36;100.00;103537.00;5286488;28;20038;-68
2023/02/10 01:43:31;;;;;;;36.92;26.83;;;;;;;2.32;100.00;103542.22;5285891;28;20016;-68
2023/02/10 01:46:02;;;;;;;37.58;27.70;;;;;;;2.28;100.00;103536.19;5269921;28;20028;-69
2023/02/10 01:48:33;;;;;;;39.75;28.52;;;;;;;2.29;100.00;103537.06;5293839;28;20020;-69
2023/02/10 01:51:06;;;;;;;37.05;28.20;;;;;;;2.32;100.00;103537.03;5287523;28;20102;-68
2023/02/10 01:53:38;;;;;;;42.88;30.63;;;;;;;2.34;100.00;103528.38;5285093;28;20047;-69
2023/02/10 01:56:12;;;;;;;38.53;29.77;;;;;;;2.31;100.00;103519.78;5286359;28;20028;-69
2023/02/10 01:58:44;;;;;;;41.42;29.15;;;;;;;2.32;100.00;103506.00;5289877;28;20114;-69
2023/02/10 02:01:16;;;;;;;39.97;28.63;;;;;;;2.33;100.00;103499.94;5289888;28;20032;-69
2023/02/10 02:03:48;;;;;;;40.33;28.70;;;;;;;2.33;100.00;103502.53;5288183;28;20342;-69
2023/02/10 02:06:19;;;;;;;40.80;29.98;;;;;;;2.32;100.00;103499.09;5280937;28;20295;-69
2023/02/10 02:08:51;;;;;;;41.17;29.65;;;;;;;2.32;100.00;103503.41;5284334;28;20028;-69
2023/02/10 02:11:34;;;;;;;37.92;28.27;;;;;;;2.41;100.00;103499.00;5287211;28;20031;-69
2023/02/10 02:14:30;;;;;;;39.22;29.75;;;;;;;2.43;100.00;103497.28;5289309;28;20122;-69
2023/02/10 02:17:33;;;;;;;41.95;28.90;;;;;;;2.52;100.00;103504.09;5292171;28;20066;-69
2023/02/10 02:20:40;;;;;;;39.55;28.60;;;;;;;2.19;100.00;103510.38;5281128;28;20107;-68
2023/02/10 02:23:25;;;;;;;41.50;29.20;;;;;;;2.33;100.00;103507.69;5283780;28;20033;-69
2023/02/10 02:26:29;;;;;;;42.00;30.05;;;;;;;2.46;100.00;103501.53;5289217;28;20431;-69
2023/02/10 02:29:29;;;;;;;38.27;28.37;;;;;;;2.43;100.00;103511.94;5282919;28;20127;-69
2023/02/10 02:32:21;;;;;;;37.30;28.55;;;;;;;2.43;100.00;103509.34;5265362;28;20381;-68
2023/02/10 02:35:04;;;;;;;39.58;28.70;;;;;;;2.36;100.00;103510.28;5285698;28;20031;-68
2023/02/10 02:37:41;;;;;;;38.88;28.65;;;;;;;2.28;100.00;103509.47;5266590;28;20529;-69
2023/02/10 02:40:15;;;;;;;41.22;29.17;;;;;;;2.23;100.00;103516.38;5281964;28;20115;-69
2023/02/10 02:42:48;;;;;;;35.92;27.08;;;;;;;2.16;100.00;103519.03;5267337;28;20465;-69
2023/02/10 02:45:23;;;;;;;40.53;28.00;;;;;;;2.23;100.00;103527.59;5288827;28;20547;-69
2023/02/10 02:48:00;;;;;;;40.63;28.77;;;;;;;2.23;100.00;103522.41;5287838;28;20028;-69
2023/02/10 02:50:43;;;;;;;38.42;28.73;;;;;;;2.24;100.00;103515.53;5265093;28;20071;-68
2023/02/10 02:53:27;;;;;;;42.15;29.60;;;;;;;2.31;100.00;103523.25;5284425;28;20124;-69
2023/02/10 02:56:08;;;;;;;36.35;27.30;;;;;;;2.24;100.00;103523.31;5280588;28;20036;-69
2023/02/10 02:59:22;;;;;;;40.30;28.33;;;;;;;2.33;100.00;103520.63;5266381;28;20032;-68
2023/02/10 03:01:58;;;;;;;;;;;;;;;2.63;100.00;103510.03;5282600;28;20030;-68
2023/02/10 03:04:34;;;;;;;40.25;27.55;;;;;;;2.11;100.00;103492.31;5281901;28;19911;-69
2023/02/10 03:07:06;;;;;;;39.30;27.67;;;;;;;2.07;100.00;103505.28;5293417;28;20028;-69
2023/02/10 03:09:37;;;;;;;41.35;28.00;;;;;;;2.01;100.00;103513.97;5282758;28;20023;-69
2023/02/10 03:12:09;;;;;;;41.15;28.90;;;;;;;2.07;100.00;103519.06;5287165;28;20043;-69
2023/02/10 03:14:40;;;;;;;41.08;29.58;;;;;;;2.07;100.00;103524.25;5281986;28;20048;-69
2023/02/10 03:17:11;;;;;;;37.80;28.83;;;;;;;2.06;100.00;103525.13;5286995;28;20586;-68
2023/02/10 03:19:43;;;;;;;39.58;28.58;;;;;;;2.05;100.00;103532.91;5273646;28;20380;-69
2023/02/10 03:22:14;;;;;;;39.03;29.08;;;;;;;2.04;100.00;103537.19;5287207;28;20435;-69
2023/02/10 03:24:45;;;;;;;40.88;29.65;;;;;;;1.98;100.00;103534.66;5289028;28;20044;-68
2023/02/10 03:27:16;;;;;;;40.50;30.08;;;;;;;2.03;100.00;103542.38;5286234;28;20028;-69
2023/02/10 03:29:49;;;;;;;39.00;27.88;;;;;;;1.96;100.00;103544.13;5285998;28;20020;-69
2023/02/10 03:32:20;;;;;;;42.97;29.60;;;;;;;1.96;100.00;103544.13;5289460;28;20384;-69
2023/02/10 03:34:52;;;;;;;39.25;28.83;;;;;;;1.87;100.00;103539.88;5289955;28;20101;-69
2023/02/10 03:37:23;;;;;;;41.63;30.20;;;;;;;1.86;100.00;103543.34;5290904;28;20016;-69
2023/02/10 03:39:54;;;;;;;36.92;27.90;;;;;;;1.85;100.00;103543.34;5283357;28;20365;-70
2023/02/10 03:42:25;;;;;;;41.97;27.75;;;;;;;1.86;100.00;103547.66;5284483;28;20028;-68
2023/02/10 03:44:57;;;;;;;39.08;28.38;;;;;;;1.81;100.00;103539.91;5268839;28;20108;-69
2023/02/10 03:47:28;;;;;;;41.97;28.95;;;;;;;1.81;100.00;103542.50;5285636;28;20122;-69
2023/02/10 03:49:59;;;;;;;36.67;28.30;;;;;;;1.85;100.00;103543.34;5287554;28;20032;-69
2023/02/10 03:52:30;;;;;;;42.55;30.00;;;;;;;1.84;100.00;103549.38;5286575;28;20047;-69
2023/02/10 03:55:02;;;;;;;41.08;29.88;;;;;;;1.85;100.00;103546.78;5286302;28;20043;-69
2023/02/10 03:57:33;;;;;;;39.70;28.80;;;;;;;1.82;100.00;103544.22;5284436;28;20084;-69
2023/02/10 04:00:05;;;;;;;46.15;30.17;;;;;;;1.79;100.00;103544.25;5283719;28;20028;-69
2023/02/10 04:02:37;;;;;;;41.80;30.45;;;;;;;1.84;100.00;103555.41;5259328;28;20023;-68
2023/02/10 04:05:08;;;;;;;40.72;30.45;;;;;;;1.80;100.00;103553.69;5264976;28;20024;-69
2023/02/10 04:07:40;;;;;;;43.13;30.45;;;;;;;1.79;100.00;103544.25;5284306;28;20028;-69
2023/02/10 04:10:11;;;;;;;43.22;30.23;;;;;;;1.81;100.00;103539.03;5264734;28;20024;-68
2023/02/10 04:12:43;;;;;;;42.47;30.48;;;;;;;1.79;100.00;103548.56;5287742;28;20024;-68
2023/02/10 04:15:14;;;;;;;47.30;31.77;;;;;;;1.75;100.00;103545.13;5287992;28;20035;-68
2023/02/10 04:17:45;;;;;;;42.72;30.67;;;;;;;1.67;100.00;103542.56;5284291;28;20048;-69
2023/02/10 04:20:17;;;;;;;43.22;30.10;;;;;;;1.67;100.00;103542.56;5282381;28;20466;-68
2023/02/10 04:22:48;;;;;;;48.35;31.75;;;;;;;1.68;100.00;103548.59;5289041;28;20077;-69
2023/02/10 04:25:20;;;;;;;45.47;31.52;;;;;;;1.68;100.00;103552.03;5284857;28;20492;-69
2023/02/10 04:27:51;;;;;;;48.00;32.70;;;;;;;1.70;100.00;103545.16;5287519;28;20029;-69
2023/02/10 04:30:22;;;;;;;53.80;34.35;;;;;;;1.73;100.00;103546.84;5282106;28;20341;-69
2023/02/10 04:32:54;;;;;;;60.13;35.33;;;;;;;1.78;100.00;103549.41;5281607;28;20143;-69
2023/02/10 04:35:25;;;;;;;61.58;35.45;;;;;;;1.83;100.00;103545.94;5284124;28;20060;-68
2023/02/10 04:37:58;;;;;;;75.78;37.30;;;;;;;1.88;100.00;103548.50;5287287;28;20125;-69
2023/02/10 04:40:30;;;;;;;83.55;39.25;;;;;;;1.92;100.00;103555.38;5282844;28;20082;-69
2023/02/10 04:43:01;;;;;;;81.05;37.15;;;;;;;1.95;100.00;103555.34;5286768;28;20028;-69
2023/02/10 04:45:32;;;;;;;75.18;37.53;;;;;;;1.97;100.00;103558.81;5286117;28;20554;-69
2023/02/10 04:48:04;;;;;;;89.57;37.83;;;;;;;2.03;100.00;103552.72;5286824;28;20116;-69
2023/02/10 04:50:38;;;;;;;101.03;39.47;;;;;;;2.16;100.00;103556.97;5284397;28;20081;-69
2023/02/10 04:53:10;;;;;;;77.60;38.83;;;;;;;2.12;100.00;103547.50;5280429;28;20044;-69
2023/02/10 04:55:41;;;;;;;65.82;38.22;;;;;;;2.24;100.00;103554.34;5283439;28;20036;-69
2023/02/10 04:58:12;;;;;;;76.85;38.28;;;;;;;2.27;100.00;103559.47;5285454;28;20437;-69
2023/02/10 05:00:44;;;;;;;113.53;38.83;;;;;;;2.33;100.00;103551.69;5282475;28;20022;-69
2023/02/10 05:03:15;;;;;;;141.63;42.13;;;;;;;2.37;100.00;103555.97;5276557;28;20388;-69
2023/02/10 05:05:46;;;;;;;75.38;38.55;;;;;;;2.37;100.00;103551.66;5288054;28;20154;-68
2023/02/10 05:08:23;;;;;;;128.52;41.83;;;;;;;2.40;100.00;103554.22;5282604;28;20441;-69
2023/02/10 05:10:54;;;;;;;118.85;42.00;;;;;;;2.42;100.00;103554.19;5271885;28;20539;-69
2023/02/10 05:13:26;;;;;;;103.82;39.40;;;;;;;2.46;100.00;103568.81;5287269;28;20032;-68
2023/02/10 05:15:57;;;;;;;108.00;40.08;;;;;;;2.46;100.00;103571.41;5277503;28;20060;-69
2023/02/10 05:18:30;;;;;;;100.47;40.83;;;;;;;2.51;100.00;103581.75;5246021;28;20041;-69
2023/02/10 05:21:02;;;;;;;95.13;41.45;;;;;;;2.53;100.00;103578.25;5239329;28;20572;-69
2023/02/10 05:23:34;;;;;;;111.75;39.15;;;;;;;2.54;100.00;103569.66;5251433;28;20029;-69
2023/02/10 05:26:05;;;;;;;88.05;40.55;;;;;;;2.57;100.00;103572.19;5241740;28;20026;-69
2023/02/10 05:28:36;;;;;;;68.07;36.42;;;;;;;2.58;100.00;103563.59;5247440;28;20067;-69
2023/02/10 05:31:08;;;;;;;122.55;43.10;;;;;;;2.64;100.00;103560.91;5249613;28;20486;-69
2023/02/10 05:33:39;;;;;;;121.30;42.65;;;;;;;2.63;100.00;103569.56;5245137;28;20021;-68
2023/02/10 05:36:10;;;;;;;126.80;43.65;;;;;;;2.70;100.00;103561.75;5239655;28;20033;-68
2023/02/10 05:39:22;;;;;;;89.32;42.35;;;;;;;2.73;100.00;103566.91;5246695;28;20448;-69
2023/02/10 05:41:33;;;;;;;125.05;43.63;;;;;;;2.74;100.00;103566.91;5246556;28;20124;-68
2023/02/10 05:44:04;;;;;;;75.25;40.38;;;;;;;2.76;100.00;103566.88;5244495;28;20120;-69
2023/02/10 05:46:36;;;;;;;121.10;42.35;;;;;;;2.79;100.00;103569.44;5247224;28;20136;-68
2023/02/10 05:49:07;;;;;;;101.53;43.35;;;;;;;2.80;100.00;103576.31;5247571;28;20040;-69
2023/02/10 05:51:38;;;;;;;109.25;44.10;;;;;;;2.83;100.00;103573.72;5245620;28;20036;-69
2023/02/10 05:54:10;;;;;;;94.53;43.20;;;;;;;2.78;100.00;103576.34;5241721;28;20086;-69
2023/02/10 05:56:41;;;;;;;114.93;43.55;;;;;;;2.73;100.00;103567.78;5225046;28;20025;-68
2023/02/10 05:59:13;;;;;;;86.15;41.97;;;;;;;2.80;100.00;103571.16;5243180;28;20037;-69
2023/02/10 06:01:44;;;;;;;93.55;42.60;;;;;;;2.80;100.00;103578.91;5247046;28;20032;-68
2023/02/10 06:04:16;;;;;;;107.97;43.17;;;;;;;2.79;100.00;103574.63;5239987;28;20029;-69
2023/02/10 06:06:47;;;;;;;104.50;42.75;;;;;;;2.78;100.00;103578.09;5245135;28;20029;-69
2023/02/10 06:09:20;;;;;;;89.05;41.40;;;;;;;2.82;100.00;103574.59;5230650;28;20037;-69
2023/02/10 06:11:52;;;;;;;100.07;41.85;;;;;;;2.84;100.00;103580.59;5243195;28;20048;-69
2023/02/10 06:14:23;;;;;;;90.35;41.63;;;;;;;2.83;100.00;103571.13;5244224;28;20478;-69
2023/02/10 06:16:54;;;;;;;92.32;41.78;;;;;;;2.84;100.00;103578.03;5243939;28;20051;-69
2023/02/10 06:19:26;;;;;;;88.60;41.53;;;;;;;2.83;100.00;103578.91;5280773;28;20028;-69
2023/02/10 06:21:57;;;;;;;73.30;40.17;;;;;;;2.89;100.00;103582.31;5287999;28;20589;-69
2023/02/10 06:24:28;;;;;;;83.28;39.95;;;;;;;2.85;100.00;103579.75;5291016;28;20500;-68
2023/02/10 06:27:00;;;;;;;74.93;40.40;;;;;;;2.93;100.00;103572.78;5289149;28;20454;-68
2023/02/10 06:29:31;;;;;;;83.50;40.30;;;;;;;2.89;100.00;103579.72;5285122;28;20031;-68
2023/02/10 06:32:03;;;;;;;84.72;38.53;;;;;;;2.90;100.00;103572.81;5269548;28;20027;-68
2023/02/10 06:34:34;;;;;;;93.75;39.38;;;;;;;2.93;100.00;103575.38;5286659;28;20032;-68
2023/02/10 06:37:05;;;;;;;82.65;40.50;;;;;;;2.96;100.00;103577.94;5287453;28;20150;-68
2023/02/10 06:39:36;;;;;;;85.03;40.92;;;;;;;2.99;100.00;103579.63;5285196;28;20528;-68
2023/02/10 06:42:08;;;;;;;106.63;42.08;;;;;;;2.98;100.00;103583.09;5284678;28;20032;-68
2023/02/10 06:44:39;;;;;;;76.22;37.38;;;;;;;3.02;100.00;103580.44;5285600;28;20456;-69
2023/02/10 06:47:11;;;;;;;81.22;40.13;;;;;;;3.08;100.00;103577.81;5281764;28;20029;-69
2023/02/10 06:49:42;;;;;;;90.60;41.78;;;;;;;3.09;100.00;103574.34;5283784;28;20043;-68
2023/02/10 06:52:13;;;;;;;86.20;41.30;;;;;;;3.09;100.00;103569.16;5283972;28;20546;-68
2023/02/10 06:54:44;;;;;;;87.03;42.40;;;;;;;3.24;100.00;103580.25;5279278;28;20119;-69
2023/02/10 06:57:16;;;;;;;86.05;40.80;;;;;;;3.29;100.00;103574.13;5283534;28;20039;-69
2023/02/10 06:59:47;;;;;;;93.15;42.50;;;;;;;3.30;100.00;103573.28;5289639;28;20032;-69
2023/02/10 07:02:18;;;;;;;86.35;43.50;;;;;;;3.31;100.00;103574.13;5279476;28;20062;-69
2023/02/10 07:04:50;;;;;;;103.38;43.85;;;;;;;3.31;100.00;103576.72;5286453;28;20020;-68
2023/02/10 07:07:21;;;;;;;106.85;44.35;;;;;;;3.30;100.00;103572.44;5289112;28;20067;-68
2023/02/10 07:09:53;;;;;;;108.35;44.97;;;;;;;3.35;100.00;103592.22;5285487;28;20024;-68
2023/02/10 07:12:26;;;;;;;93.05;43.83;;;;;;;3.40;100.00;103610.31;5285079;28;20032;-68
2023/02/10 07:14:58;;;;;;;94.97;44.80;;;;;;;3.38;100.00;103606.88;5286416;28;20105;-69
2023/02/10 07:17:29;;;;;;;101.60;46.28;;;;;;;3.42;100.00;103613.75;5284680;28;20040;-69
2023/02/10 07:20:00;;;;;;;95.70;44.35;;;;;;;3.46;100.00;103604.22;5286663;28;20063;-68
2023/02/10 07:22:33;;;;;;;112.95;44.08;;;;;;;3.48;100.00;103600.72;5282649;28;20023;-68
2023/02/10 07:25:04;;;;;;;103.80;46.37;;;;;;;3.52;100.00;103602.38;5284646;28;20024;-69
2023/02/10 07:27:36;;;;;;;104.68;45.45;;;;;;;3.60;100.00;103605.78;5286804;28;20017;-69
2023/02/10 07:30:07;;;;;;;111.32;46.28;;;;;;;3.62;100.00;103606.59;5284970;28;20039;-69
2023/02/10 07:32:41;;;;;;;106.60;47.10;;;;;;;3.61;100.00;103620.47;5284856;28;20024;-69
2023/02/10 07:35:12;;;;;;;;;;;;;;;4.11;100.00;103615.53;5280003;28;20141;-70
2023/02/10 07:37:44;;;;;;;94.82;42.65;;;;;;;3.66;100.00;103607.44;5280318;28;19921;-69
2023/02/10 07:40:16;;;;;;;112.72;48.83;;;;;;;3.68;100.00;103608.28;5283856;28;20024;-68
2023/02/10 07:42:47;;;;;;;106.70;46.55;;;;;;;3.71;100.00;103605.63;5281445;28;20028;-69
2023/02/10 07:45:18;;;;;;;108.90;47.88;;;;;;;3.72;100.00;103611.72;5283537;28;20124;-69
2023/02/10 07:47:50;;;;;;;98.70;45.67;;;;;;;3.71;100.00;103594.41;5283903;28;20024;-69
2023/02/10 07:50:21;;;;;;;110.90;49.20;;;;;;;3.82;100.00;103605.50;5279530;28;20035;-69
2023/02/10 07:52:53;;;;;;;108.10;48.22;;;;;;;3.84;100.00;103612.41;5283529;28;20500;-68
2023/02/10 07:55:24;;;;;;;109.68;48.85;;;;;;;3.86;100.00;103604.59;5281140;28;20028;-69
2023/02/10 07:57:55;;;;;;;104.47;49.55;;;;;;;3.92;100.00;103609.72;5284132;28;20020;-70
2023/02/10 08:00:26;;;;;;;98.15;48.42;;;;;;;3.90;100.00;103601.97;5285716;28;20495;-69
2023/02/10 08:02:58;;;;;;;110.70;48.78;;;;;;;3.88;100.00;103603.72;5277528;28;20401;-69
2023/02/10 08:05:29;;;;;;;101.15;48.90;;;;;;;4.01;100.00;103614.78;5282943;28;20400;-70
2023/02/10 08:08:00;;;;;;;99.78;48.70;;;;;;;4.05;100.00;103626.88;5276590;28;20040;-69
2023/02/10 08:10:31;;;;;;;96.90;48.20;;;;;;;4.12;100.00;103631.06;5280536;28;20028;-69
2023/02/10 08:13:03;;;;;;;101.00;47.42;;;;;;;4.15;100.00;103636.22;5284279;28;20028;-70
2023/02/10 08:15:35;;;;;;;100.18;47.50;;;;;;;4.14;100.00;103639.69;5284197;28;20016;-69
2023/02/10 08:18:06;;;;;;;93.65;46.67;;;;;;;4.13;100.00;103639.72;5279100;28;20047;-70
2023/02/10 08:20:40;;;;;;;98.25;47.50;;;;;;;4.14;100.00;103651.81;5283687;28;20502;-70
2023/02/10 08:23:14;;;;;;;98.40;46.90;;;;;;;4.17;100.00;103641.41;5283007;28;20701;-70
2023/02/10 08:25:46;;;;;;;95.90;47.85;;;;;;;4.15;100.00;103638.81;5280613;28;20190;-70
2023/02/10 08:28:18;;;;;;;85.90;44.97;;;;;;;4.15;100.00;103631.03;5284025;28;20127;-70
2023/02/10 08:30:49;;;;;;;99.07;46.35;;;;;;;4.15;100.00;103630.19;5285323;28;20029;-69
2023/02/10 08:33:20;;;;;;;90.82;44.78;;;;;;;4.18;100.00;103637.06;5280566;28;20469;-70
2023/02/10 08:35:51;;;;;;;87.97;43.17;;;;;;;4.09;100.00;103635.44;5282851;28;20032;-69
2023/02/10 08:38:23;;;;;;;90.65;45.72;;;;;;;4.11;100.00;103647.53;5282644;28;20114;-69
2023/02/10 08:40:56;;;;;;;95.32;45.63;;;;;;;4.20;100.00;103666.44;5279754;28;20374;-69
2023/02/10 08:43:27;;;;;;;88.28;44.30;;;;;;;4.20;100.00;103656.91;5288636;28;20086;-70
2023/02/10 08:46:00;;;;;;;91.90;45.53;;;;;;;4.33;100.00;103670.59;5282293;28;20029;-69
2023/02/10 08:48:32;;;;;;;92.72;45.95;;;;;;;4.37;100.00;103656.72;5279329;28;20039;-70
2023/02/10 08:51:09;;;;;;;86.68;44.63;;;;;;;4.48;100.00;103661.75;5284423;28;20040;-70
2023/02/10 08:53:40;;;;;;;94.13;45.28;;;;;;;4.46;100.00;103647.91;5284895;28;20028;-69
2023/02/10 08:56:15;;;;;;;89.22;46.85;;;;;;;4.53;100.00;103644.38;5287489;28;20117;-70
2023/02/10 08:58:46;;;;;;;87.88;47.08;;;;;;;4.42;100.00;103639.31;5279044;28;20063;-69
2023/02/10 09:01:21;;;;;;;96.15;49.33;;;;;;;4.47;100.00;103634.94;5288232;28;20036;-70
2023/02/10 09:03:54;;;;;;;89.88;47.45;;;;;;;4.42;100.00;103630.69;5292859;28;20483;-70
2023/02/10 09:06:38;;;;;;;94.43;46.92;;;;;;;4.52;100.00;103637.47;5279834;28;20496;-70
2023/02/10 09:09:12;;;;;;;92.88;46.35;;;;;;;4.49;100.00;103651.34;5287311;28;20110;-70
2023/02/10 09:11:43;;;;;;;90.10;48.15;;;;;;;4.48;100.00;103643.59;5281590;28;20028;-70
2023/02/10 09:14:15;;;;;;;91.13;44.45;;;;;;;4.52;100.00;103659.09;5281356;28;20039;-69
2023/02/10 09:16:46;;;;;;;93.40;46.42;;;;;;;4.58;100.00;103647.75;5285930;28;20036;-69
2023/02/10 09:19:19;;;;;;;87.88;46.33;;;;;;;4.68;100.00;103648.47;5290170;28;20462;-70
2023/02/10 09:21:51;;;;;;;81.43;45.60;;;;;;;4.68;100.00;103645.88;5284008;28;20036;-70
2023/02/10 09:24:23;;;;;;;90.07;44.70;;;;;;;4.71;100.00;103641.50;5288640;28;20042;-70
2023/02/10 09:26:54;;;;;;;88.28;43.15;;;;;;;4.73;100.00;103642.31;5278289;28;20031;-70
2023/02/10 09:29:26;;;;;;;82.03;41.53;;;;;;;4.80;100.00;103646.53;5275667;28;20405;-70
2023/02/10 09:31:57;;;;;;;80.80;42.10;;;;;;;4.82;100.00;103652.56;5285468;28;20073;-70
2023/02/10 09:34:29;;;;;;;79.43;40.63;;;;;;;4.87;100.00;103657.69;5282510;28;20052;-70
2023/02/10 09:37:02;;;;;;;81.15;41.40;;;;;;;4.95;100.00;103661.03;5282989;28;20409;-70
2023/02/10 09:39:33;;;;;;;81.47;42.42;;;;;;;5.01;100.00;103660.94;5281699;28;20068;-70
2023/02/10 09:42:22;;;;;;;82.65;42.03;;;;;;;5.12;100.00;103663.38;5277765;28;20067;-70
2023/02/10 09:45:17;;;;;;;81.13;43.20;;;;;;;5.25;100.00;103651.00;5280223;28;20032;-70
2023/02/10 09:48:00;;;;;;;79.05;39.70;;;;;;;5.21;100.00;103650.19;5277368;28;20036;-70
2023/02/10 09:51:06;;;;;;;79.28;41.25;;;;;;;5.37;100.00;103646.44;5276073;28;20089;-70
2023/02/10 09:53:37;;;;;;;80.43;40.83;;;;;;;5.32;100.00;103642.22;5269367;28;20473;-70
2023/02/10 09:56:16;;;;;;;79.10;42.33;;;;;;;5.51;100.00;103645.34;5285948;28;20038;-70
2023/02/10 09:58:56;;;;;;;81.30;43.10;;;;;;;5.60;100.00;103648.59;5282785;28;20056;-70
2023/02/10 10:01:41;;;;;;;80.40;41.42;;;;;;;5.76;100.00;103648.34;5282588;28;20082;-70
2023/02/10 10:04:17;;;;;;;79.68;42.58;;;;;;;5.69;100.00;103644.16;5288719;28;20028;-70
2023/02/10 10:07:05;;;;;;;82.32;43.35;;;;;;;5.73;100.00;103641.44;5279569;28;20444;-70
2023/02/10 10:09:50;;;;;;;78.80;41.85;;;;;;;5.93;100.00;103648.88;5286990;28;20048;-69
2023/02/10 10:12:22;;;;;;;82.80;42.63;;;;;;;5.80;100.00;103652.59;5288048;28;20039;-70
2023/02/10 10:14:54;;;;;;;81.85;42.53;;;;;;;5.86;100.00;103655.91;5284155;28;20036;-70
2023/02/10 10:17:44;;;;;;;78.45;43.15;;;;;;;6.21;100.00;103657.00;5283209;28;20049;-70
2023/02/10 10:20:30;;;;;;;78.90;43.10;;;;;;;6.22;100.00;103663.91;5281866;28;20664;-69
2023/02/10 10:23:22;;;;;;;81.90;43.75;;;;;;;6.24;100.00;103656.03;5280868;28;20036;-70
2023/02/10 10:26:04;;;;;;;74.20;42.08;;;;;;;6.18;100.00;103658.81;5284526;28;20016;-70
2023/02/10 10:28:41;;;;;;;78.10;42.70;;;;;;;6.24;100.00;103651.69;5279499;28;20036;-70
2023/02/10 10:31:26;;;;;;;72.00;42.97;;;;;;;6.38;100.00;103648.81;5289495;28;20043;-70
2023/02/10 10:34:18;;;;;;;74.25;41.50;;;;;;;6.48;100.00;103647.72;5285172;28;20104;-70
2023/02/10 10:36:54;;;;;;;74.47;42.38;;;;;;;6.25;100.00;103661.25;5284043;28;20029;-70
2023/02/10 10:39:36;;;;;;;71.30;40.67;;;;;;;6.27;100.00;103650.78;5288131;28;20563;-70
2023/02/10 10:42:23;;;;;;;66.82;42.05;;;;;;;6.30;100.00;103659.38;5283505;28;20369;-70
2023/02/10 10:45:19;;;;;;;75.13;41.95;;;;;;;6.63;100.00;103658.66;5269085;28;20035;-70
2023/02/10 10:47:59;;;;;;;72.63;42.22;;;;;;;6.51;100.00;103654.56;5277028;28;20405;-70
2023/02/10 10:50:30;;;;;;;72.88;42.92;;;;;;;6.51;100.00;103650.22;5282635;28;20132;-70
2023/02/10 10:53:12;;;;;;;75.90;43.72;;;;;;;6.68;100.00;103656.81;5287782;28;20032;-70
2023/02/10 10:55:47;;;;;;;68.45;42.25;;;;;;;6.72;100.00;103642.81;5283043;28;20021;-70
2023/02/10 10:58:31;;;;;;;70.90;44.45;;;;;;;6.77;100.00;103646.16;5263485;28;20032;-70
2023/02/10 11:01:03;;;;;;;76.63;45.22;;;;;;;6.68;100.00;103628.16;5282222;28;20089;-70
2023/02/10 11:03:34;;;;;;;68.97;43.00;;;;;;;6.78;100.00;103629.63;5286658;28;20484;-70
2023/02/10 11:06:16;;;;;;;69.00;45.00;;;;;;;6.99;100.00;103621.28;5286346;28;20027;-70
2023/02/10 11:08:58;;;;;;;76.25;45.00;;;;;;;7.09;100.00;103623.69;5282635;28;20036;-70
2023/02/10 11:11:36;;;;;;;84.75;49.33;;;;;;;7.12;100.00;103611.41;5285256;28;20123;-70
2023/02/10 11:14:40;;;;;;;74.88;47.08;;;;;;;7.47;100.00;103630.50;5279645;28;20036;-70
2023/02/10 11:17:19;;;;;;;76.43;47.28;;;;;;;7.35;100.00;103625.56;5266098;28;20044;-74
2023/02/10 11:20:00;;;;;;;74.03;48.35;;;;;;;7.34;100.00;103613.44;5280402;28;20105;-71
2023/02/10 11:22:31;;;;;;;76.45;48.63;;;;;;;7.27;100.00;103618.84;5283281;28;20504;-71
2023/02/10 11:25:23;;;;;;;68.90;46.30;;;;;;;7.56;100.00;103610.22;5291170;28;20036;-73
2023/02/10 11:27:56;;;;;;;70.88;47.08;;;;;;;7.42;100.00;103612.34;5282300;28;20099;-74
2023/02/10 11:30:33;;;;;;;73.15;48.08;;;;;;;7.63;100.00;103612.66;5286582;28;20415;-71
2023/02/10 11:33:18;;;;;;;69.00;46.15;;;;;;;7.74;100.00;103618.44;5280974;28;20668;-71
2023/02/10 11:35:52;;;;;;;66.68;43.47;;;;;;;7.85;100.00;103618.97;5285113;28;20039;-72
2023/02/10 11:38:25;;;;;;;63.65;43.60;;;;;;;7.85;100.00;103618.13;5283779;28;20143;-71
2023/02/10 11:41:04;;;;;;;63.03;42.22;;;;;;;8.01;100.00;103616.78;5280957;28;20032;-72
2023/02/10 11:43:46;;;;;;;58.92;42.88;;;;;;;8.19;100.00;103610.16;5275937;28;20416;-72